createdAt,value
2018-02-25T00:00:21.217Z,0.00
2018-02-25T00:01:21.173Z,0.00
2018-02-25T00:02:21.136Z,0.00
2018-02-25T00:03:21.120Z,0.00
2018-02-25T00:04:21.062Z,0.00
2018-02-25T00:05:21.028Z,0.00
2018-02-25T00:06:20.994Z,0.00
2018-02-25T00:07:20.952Z,0.00
2018-02-25T00:08:20.946Z,0.00
2018-02-25T00:09:20.886Z,0.00
2018-02-25T00:10:20.875Z,0.00
2018-02-25T00:11:20.814Z,0.00
2018-02-25T00:12:20.773Z,0.00
2018-02-25T00:13:20.732Z,0.00
2018-02-25T00:14:20.730Z,0.00
2018-02-25T00:15:20.675Z,0.00
2018-02-25T00:16:20.625Z,0.00
2018-02-25T00:17:20.592Z,0.00
2018-02-25T00:18:20.551Z,0.00
2018-02-25T00:19:20.550Z,0.00
2018-02-25T00:20:20.479Z,0.00
2018-02-25T00:21:20.444Z,0.00
2018-02-25T00:22:20.406Z,0.00
2018-02-25T00:23:20.366Z,0.00
2018-02-25T00:24:20.364Z,0.00
2018-02-25T00:25:20.291Z,0.00
2018-02-25T00:26:20.273Z,0.00
2018-02-25T00:27:20.223Z,0.00
2018-02-25T00:28:20.185Z,0.00
2018-02-25T00:29:20.149Z,0.00
2018-02-25T00:30:20.145Z,0.00
2018-02-25T00:31:20.075Z,0.00
2018-02-25T00:32:20.036Z,0.00
2018-02-25T00:33:19.998Z,0.00
2018-02-25T00:34:19.965Z,0.00
2018-02-25T00:35:19.954Z,0.00
2018-02-25T00:36:19.933Z,0.00
2018-02-25T00:37:19.851Z,0.00
2018-02-25T00:38:19.819Z,0.00
2018-02-25T00:39:19.784Z,0.00
2018-02-25T00:40:19.745Z,0.00
2018-02-25T00:41:19.705Z,0.00
2018-02-25T00:42:19.691Z,0.00
2018-02-25T00:43:19.638Z,0.00
2018-02-25T00:44:19.593Z,0.00
2018-02-25T00:45:19.564Z,0.00
2018-02-25T00:46:19.530Z,0.00
2018-02-25T00:47:19.509Z,0.00
2018-02-25T00:48:19.472Z,0.00
2018-02-25T00:49:19.412Z,0.00
2018-02-25T00:50:19.374Z,0.00
2018-02-25T00:51:19.343Z,0.00
2018-02-25T00:52:19.335Z,0.00
2018-02-25T00:53:19.266Z,0.00
2018-02-25T00:54:19.233Z,0.00
2018-02-25T00:55:19.198Z,0.00
2018-02-25T00:56:19.158Z,0.00
2018-02-25T00:57:19.144Z,0.00
2018-02-25T00:58:19.111Z,0.00
2018-02-25T00:59:19.045Z,0.00
2018-02-25T01:00:19.012Z,0.00
2018-02-25T01:01:18.977Z,0.00
2018-02-25T01:02:18.936Z,0.00
2018-02-25T01:03:18.905Z,0.00
2018-02-25T01:04:18.886Z,0.00
2018-02-25T01:05:18.828Z,0.00
2018-02-25T01:06:18.797Z,0.00
2018-02-25T01:07:18.751Z,0.00
2018-02-25T01:08:18.728Z,0.00
2018-02-25T01:09:18.710Z,0.00
2018-02-25T01:10:18.646Z,0.00
2018-02-25T01:11:18.610Z,0.00
2018-02-25T01:12:18.568Z,0.00
2018-02-25T01:13:18.534Z,0.00
2018-02-25T01:14:18.502Z,0.00
2018-02-25T01:15:18.485Z,0.00
2018-02-25T01:16:18.420Z,0.00
2018-02-25T01:17:18.389Z,0.00
2018-02-25T01:18:18.355Z,0.00
2018-02-25T01:19:18.311Z,0.00
2018-02-25T01:20:18.309Z,0.00
2018-02-25T01:21:18.240Z,0.00
2018-02-25T01:22:18.205Z,0.00
2018-02-25T01:23:18.169Z,0.00
2018-02-25T01:24:18.125Z,0.00
2018-02-25T01:25:18.097Z,0.00
2018-02-25T01:26:18.083Z,0.00
2018-02-25T01:27:18.055Z,0.00
2018-02-25T01:28:17.981Z,0.00
2018-02-25T01:29:17.943Z,0.00
2018-02-25T01:30:17.908Z,0.00
2018-02-25T01:31:17.909Z,0.00
2018-02-25T01:32:17.834Z,0.00
2018-02-25T01:33:17.799Z,0.00
2018-02-25T01:34:17.762Z,0.00
2018-02-25T01:35:17.731Z,0.00
2018-02-25T01:36:17.687Z,0.00
2018-02-25T01:37:17.680Z,0.00
2018-02-25T01:38:17.616Z,0.00
2018-02-25T01:39:17.580Z,0.00
2018-02-25T01:40:17.544Z,0.00
2018-02-25T01:41:17.510Z,0.00
2018-02-25T01:42:17.506Z,0.00
2018-02-25T01:43:17.431Z,0.00
2018-02-25T01:44:17.397Z,0.00
2018-02-25T01:45:17.376Z,0.00
2018-02-25T01:46:17.327Z,0.00
2018-02-25T01:47:17.288Z,0.00
2018-02-25T01:48:17.272Z,0.00
2018-02-25T01:49:17.215Z,0.00
2018-02-25T01:50:17.178Z,0.00
2018-02-25T01:51:17.137Z,0.00
2018-02-25T01:52:17.102Z,0.00
2018-02-25T01:53:17.100Z,0.00
2018-02-25T01:54:17.030Z,0.00
2018-02-25T01:55:17.904Z,0.00
2018-02-25T01:56:16.952Z,0.00
2018-02-25T01:57:16.973Z,0.00
2018-02-25T01:58:16.878Z,0.00
2018-02-25T01:59:17.233Z,0.00
2018-02-25T02:00:16.809Z,0.00
2018-02-25T02:01:16.796Z,0.00
2018-02-25T02:02:16.735Z,0.00
2018-02-25T02:03:16.702Z,0.00
2018-02-25T02:04:16.665Z,0.00
2018-02-25T02:05:17.112Z,0.00
2018-02-25T02:06:16.593Z,0.00
2018-02-25T02:07:16.554Z,0.00
2018-02-25T02:08:16.517Z,0.00
2018-02-25T02:09:16.479Z,0.00
2018-02-25T02:10:16.479Z,0.00
2018-02-25T02:11:16.430Z,0.00
2018-02-25T02:12:16.367Z,0.00
2018-02-25T02:13:16.335Z,0.00
2018-02-25T02:14:16.298Z,0.00
2018-02-25T02:15:16.262Z,0.00
2018-02-25T02:16:16.245Z,0.00
2018-02-25T02:17:16.191Z,0.00
2018-02-25T02:18:16.148Z,0.00
2018-02-25T02:19:16.112Z,0.00
2018-02-25T02:20:16.075Z,0.00
2018-02-25T02:21:16.035Z,0.00
2018-02-25T02:22:16.028Z,0.00
2018-02-25T02:23:15.965Z,0.00
2018-02-25T02:24:16.368Z,0.00
2018-02-25T02:25:15.893Z,0.00
2018-02-25T02:26:15.855Z,0.00
2018-02-25T02:27:15.853Z,0.00
2018-02-25T02:28:15.786Z,0.00
2018-02-25T02:29:15.743Z,0.00
2018-02-25T02:30:15.709Z,0.00
2018-02-25T02:31:15.678Z,0.00
2018-02-25T02:32:15.636Z,0.00
2018-02-25T02:33:15.629Z,0.00
2018-02-25T02:34:15.568Z,0.00
2018-02-25T02:35:15.552Z,0.00
2018-02-25T02:36:15.514Z,0.00
2018-02-25T02:37:15.450Z,0.00
2018-02-25T02:38:15.420Z,0.00
2018-02-25T02:39:15.398Z,0.00
2018-02-25T02:40:15.338Z,0.00
2018-02-25T02:41:15.305Z,0.00
2018-02-25T02:42:15.264Z,0.00
2018-02-25T02:43:15.232Z,0.00
2018-02-25T02:44:15.226Z,0.00
2018-02-25T02:45:15.156Z,0.00
2018-02-25T02:46:15.121Z,0.00
2018-02-25T02:47:15.081Z,0.00
2018-02-25T02:48:15.047Z,0.00
2018-02-25T02:49:15.007Z,0.00
2018-02-25T02:50:15.003Z,0.00
2018-02-25T02:51:14.939Z,0.00
2018-02-25T02:52:14.894Z,0.00
2018-02-25T02:53:14.866Z,0.00
2018-02-25T02:54:14.822Z,0.00
2018-02-25T02:55:14.791Z,0.00
2018-02-25T02:56:14.784Z,0.00
2018-02-25T02:57:14.714Z,0.00
2018-02-25T02:58:14.679Z,0.00
2018-02-25T02:59:14.645Z,0.00
2018-02-25T03:00:14.608Z,0.00
2018-02-25T03:01:14.592Z,0.00
2018-02-25T03:02:14.531Z,0.00
2018-02-25T03:03:14.497Z,0.00
2018-02-25T03:04:14.458Z,0.00
2018-02-25T03:05:14.420Z,0.00
2018-02-25T03:06:14.381Z,0.00
2018-02-25T03:07:14.381Z,0.00
2018-02-25T03:08:14.312Z,0.00
2018-02-25T03:09:14.271Z,0.00
2018-02-25T03:10:14.271Z,0.00
2018-02-25T03:11:14.198Z,0.00
2018-02-25T03:12:14.162Z,0.00
2018-02-25T03:13:14.152Z,0.00
2018-02-25T03:14:14.096Z,0.00
2018-02-25T03:15:14.055Z,0.00
2018-02-25T03:16:14.012Z,0.00
2018-02-25T03:17:13.975Z,0.00
2018-02-25T03:18:13.969Z,0.00
2018-02-25T03:19:13.907Z,0.00
2018-02-25T03:20:13.891Z,0.00
2018-02-25T03:21:13.834Z,0.00
2018-02-25T03:22:13.792Z,0.00
2018-02-25T03:23:13.754Z,0.00
2018-02-25T03:24:13.753Z,0.00
2018-02-25T03:25:13.684Z,0.00
2018-02-25T03:26:13.647Z,0.00
2018-02-25T03:27:13.606Z,0.00
2018-02-25T03:28:13.573Z,0.00
2018-02-25T03:29:13.538Z,0.00
2018-02-25T03:30:13.521Z,0.00
2018-02-25T03:31:13.464Z,0.00
2018-02-25T03:32:13.423Z,0.00
2018-02-25T03:33:13.386Z,0.00
2018-02-25T03:34:13.353Z,0.00
2018-02-25T03:35:13.340Z,0.00
2018-02-25T03:36:13.278Z,0.00
2018-02-25T03:37:13.239Z,0.00
2018-02-25T03:38:13.200Z,0.00
2018-02-25T03:39:13.169Z,0.00
2018-02-25T03:40:13.134Z,0.00
2018-02-25T03:41:13.131Z,0.00
2018-02-25T03:42:13.080Z,0.00
2018-02-25T03:43:13.021Z,0.00
2018-02-25T03:44:12.982Z,0.00
2018-02-25T03:45:12.947Z,0.00
2018-02-25T03:46:12.910Z,0.00
2018-02-25T03:47:12.894Z,0.00
2018-02-25T03:48:12.831Z,0.00
2018-02-25T03:49:12.795Z,0.00
2018-02-25T03:50:12.761Z,0.00
2018-02-25T03:51:12.749Z,0.00
2018-02-25T03:52:12.722Z,0.00
2018-02-25T03:53:12.652Z,0.00
2018-02-25T03:54:12.615Z,0.00
2018-02-25T03:55:12.576Z,0.00
2018-02-25T03:56:12.542Z,0.00
2018-02-25T03:57:12.506Z,0.00
2018-02-25T03:58:12.486Z,0.00
2018-02-25T03:59:12.426Z,0.00
2018-02-25T04:00:12.396Z,0.00
2018-02-25T04:01:12.356Z,0.00
2018-02-25T04:02:12.321Z,0.00
2018-02-25T04:03:12.279Z,0.00
2018-02-25T04:04:12.278Z,0.00
2018-02-25T04:05:12.208Z,0.00
2018-02-25T04:06:12.172Z,0.00
2018-02-25T04:07:12.131Z,0.00
2018-02-25T04:08:12.095Z,0.00
2018-02-25T04:09:12.092Z,0.00
2018-02-25T04:10:12.026Z,0.00
2018-02-25T04:11:12.013Z,0.00
2018-02-25T04:12:11.946Z,0.00
2018-02-25T04:13:11.914Z,0.00
2018-02-25T04:14:11.872Z,0.00
2018-02-25T04:15:11.951Z,0.00
2018-02-25T04:16:11.797Z,0.00
2018-02-25T04:17:11.769Z,0.00
2018-02-25T04:18:11.727Z,0.00
2018-02-25T04:19:11.690Z,0.00
2018-02-25T04:20:11.655Z,0.00
2018-02-25T04:21:11.875Z,0.00
2018-02-25T04:22:11.580Z,0.00
2018-02-25T04:23:11.551Z,0.00
2018-02-25T04:24:11.505Z,0.00
2018-02-25T04:25:11.470Z,0.00
2018-02-25T04:26:11.464Z,0.00
2018-02-25T04:27:11.398Z,0.00
2018-02-25T04:28:11.359Z,0.00
2018-02-25T04:29:11.321Z,0.00
2018-02-25T04:30:11.282Z,0.00
2018-02-25T04:31:11.256Z,0.00
2018-02-25T04:32:11.237Z,0.00
2018-02-25T04:33:11.171Z,0.00
2018-02-25T04:34:11.144Z,0.00
2018-02-25T04:35:11.101Z,0.00
2018-02-25T04:36:11.094Z,0.00
2018-02-25T04:37:11.045Z,0.00
2018-02-25T04:38:10.987Z,0.00
2018-02-25T04:39:10.954Z,0.00
2018-02-25T04:40:10.918Z,0.00
2018-02-25T04:41:10.885Z,0.00
2018-02-25T04:42:10.873Z,0.00
2018-02-25T04:43:10.803Z,0.00
2018-02-25T04:44:10.766Z,0.00
2018-02-25T04:45:10.733Z,0.00
2018-02-25T04:46:10.698Z,0.00
2018-02-25T04:48:43.704Z,0.00
2018-02-25T04:49:43.636Z,0.00
2018-02-25T04:50:43.599Z,0.00
2018-02-25T04:51:43.559Z,0.00
2018-02-25T04:52:43.523Z,0.00
2018-02-25T04:53:43.534Z,0.00
2018-02-25T04:54:43.447Z,0.00
2018-02-25T04:55:43.410Z,0.00
2018-02-25T04:56:43.398Z,0.00
2018-02-25T04:57:43.339Z,0.00
2018-02-25T04:58:43.299Z,0.00
2018-02-25T04:59:43.295Z,0.00
2018-02-25T05:00:43.224Z,0.00
2018-02-25T05:01:43.189Z,0.00
2018-02-25T05:02:43.155Z,0.00
2018-02-25T05:03:43.120Z,0.00
2018-02-25T05:04:43.087Z,0.00
2018-02-25T05:05:43.067Z,0.00
2018-02-25T05:06:43.006Z,0.00
2018-02-25T05:07:42.968Z,0.00
2018-02-25T05:08:42.936Z,0.00
2018-02-25T05:09:42.899Z,0.00
2018-02-25T05:10:42.882Z,0.00
2018-02-25T05:11:42.989Z,0.00
2018-02-25T05:12:42.786Z,0.00
2018-02-25T05:13:42.792Z,0.00
2018-02-25T05:14:42.706Z,0.00
2018-02-25T05:15:42.696Z,0.00
2018-02-25T05:16:42.635Z,0.00
2018-02-25T05:17:42.597Z,0.00
2018-02-25T05:18:42.570Z,0.00
2018-02-25T05:19:42.524Z,0.00
2018-02-25T05:20:42.516Z,0.00
2018-02-25T05:21:42.455Z,0.00
2018-02-25T05:22:42.414Z,0.00
2018-02-25T05:23:42.380Z,0.00
2018-02-25T05:24:42.344Z,0.00
2018-02-25T05:25:42.312Z,0.00
2018-02-25T05:26:42.299Z,0.00
2018-02-25T05:27:42.260Z,0.00
2018-02-25T05:28:42.196Z,0.00
2018-02-25T05:29:42.155Z,0.00
2018-02-25T05:30:42.123Z,0.00
2018-02-25T05:31:42.086Z,0.00
2018-02-25T05:32:42.076Z,0.00
2018-02-25T05:33:42.009Z,0.00
2018-02-25T05:34:41.970Z,0.00
2018-02-25T05:35:41.934Z,0.00
2018-02-25T05:36:41.904Z,0.00
2018-02-25T05:37:41.886Z,0.00
2018-02-25T05:38:41.829Z,0.00
2018-02-25T05:39:41.788Z,0.00
2018-02-25T05:40:41.756Z,0.00
2018-02-25T05:41:41.711Z,0.00
2018-02-25T05:42:41.678Z,0.00
2018-02-25T05:43:41.676Z,0.00
2018-02-25T05:44:41.603Z,0.00
2018-02-25T05:45:41.566Z,0.00
2018-02-25T05:46:42.074Z,0.00
2018-02-25T05:47:41.520Z,0.00
2018-02-25T05:48:41.455Z,0.00
2018-02-25T05:49:41.444Z,0.00
2018-02-25T05:50:41.383Z,0.00
2018-02-25T05:51:41.351Z,0.00
2018-02-25T05:52:41.310Z,0.00
2018-02-25T05:53:41.272Z,0.00
2018-02-25T05:54:41.261Z,0.00
2018-02-25T05:55:41.196Z,0.00
2018-02-25T05:56:41.159Z,0.00
2018-02-25T05:57:41.124Z,0.00
2018-02-25T05:58:41.090Z,4.00
2018-02-25T05:59:41.056Z,0.00
2018-02-25T06:00:41.219Z,4.00
2018-02-25T06:01:40.985Z,4.00
2018-02-25T06:02:40.940Z,8.00
2018-02-25T06:03:40.898Z,4.00
2018-02-25T06:04:40.863Z,8.00
2018-02-25T06:07:14.320Z,8.00
2018-02-25T06:08:14.267Z,12.00
2018-02-25T06:09:14.223Z,12.00
2018-02-25T06:10:14.186Z,12.00
2018-02-25T06:11:14.176Z,12.00
2018-02-25T06:12:14.117Z,16.00
2018-02-25T06:13:14.080Z,20.00
2018-02-25T06:14:14.042Z,24.00
2018-02-25T06:15:14.051Z,24.00
2018-02-25T06:16:13.968Z,28.00
2018-02-25T06:17:13.964Z,32.00
2018-02-25T06:18:13.893Z,36.00
2018-02-25T06:19:24.251Z,36.00
2018-02-25T06:20:13.815Z,44.00
2018-02-25T06:21:23.035Z,44.00
2018-02-25T06:22:24.675Z,48.00
2018-02-25T06:23:24.531Z,52.00
2018-02-25T06:24:25.205Z,56.00
2018-02-25T06:25:13.637Z,64.00
2018-02-25T06:26:23.661Z,68.00
2018-02-25T06:27:24.262Z,68.00
2018-02-25T06:28:24.394Z,72.00
2018-02-25T06:29:23.773Z,84.00
2018-02-25T06:30:24.755Z,88.00
2018-02-25T06:31:23.842Z,96.00
2018-02-25T06:32:13.370Z,100.00
2018-02-25T06:33:24.396Z,104.00
2018-02-25T06:34:24.952Z,108.00
2018-02-25T06:35:23.466Z,112.00
2018-02-25T06:36:13.220Z,120.00
2018-02-25T06:37:23.663Z,128.00
2018-02-25T06:38:23.416Z,128.00
2018-02-25T06:39:23.883Z,132.00
2018-02-25T06:40:23.686Z,132.00
2018-02-25T06:41:24.689Z,144.00
2018-02-25T06:42:25.051Z,152.00
2018-02-25T06:43:24.599Z,144.00
2018-02-25T06:44:23.302Z,148.00
2018-02-25T06:45:23.655Z,160.00
2018-02-25T06:46:23.046Z,168.00
2018-02-25T06:47:23.309Z,180.00
2018-02-25T06:48:23.156Z,196.00
2018-02-25T06:49:23.141Z,200.00
2018-02-25T06:50:12.727Z,208.00
2018-02-25T06:51:23.337Z,216.00
2018-02-25T06:52:23.764Z,236.00
2018-02-25T06:53:12.585Z,240.00
2018-02-25T06:54:23.796Z,260.00
2018-02-25T06:55:22.789Z,264.00
2018-02-25T06:56:22.973Z,272.00
2018-02-25T06:57:23.443Z,284.00
2018-02-25T06:58:23.929Z,292.00
2018-02-25T06:59:22.913Z,304.00
2018-02-25T07:00:23.023Z,328.00
2018-02-25T07:01:23.458Z,332.00
2018-02-25T07:02:12.236Z,332.00
2018-02-25T07:03:22.968Z,328.00
2018-02-25T07:04:22.490Z,336.00
2018-02-25T07:05:22.562Z,344.00
2018-02-25T07:06:12.070Z,348.00
2018-02-25T07:07:22.237Z,340.00
2018-02-25T07:08:23.639Z,360.00
2018-02-25T07:09:23.083Z,352.00
2018-02-25T07:10:21.122Z,368.00
2018-02-25T07:11:11.881Z,380.00
2018-02-25T07:12:22.278Z,396.00
2018-02-25T07:13:23.178Z,392.00
2018-02-25T07:14:22.169Z,388.00
2018-02-25T07:15:11.764Z,392.00
2018-02-25T07:16:23.219Z,404.00
2018-02-25T07:17:21.791Z,424.00
2018-02-25T07:18:21.696Z,444.00
2018-02-25T07:19:21.850Z,460.00
2018-02-25T07:20:22.480Z,492.00
2018-02-25T07:21:11.491Z,504.00
2018-02-25T07:22:22.860Z,496.00
2018-02-25T07:23:21.364Z,504.00
2018-02-25T07:24:23.096Z,504.00
2018-02-25T07:25:22.072Z,504.00
2018-02-25T07:26:23.443Z,528.00
2018-02-25T07:27:22.653Z,540.00
2018-02-25T07:28:11.227Z,568.00
2018-02-25T07:29:22.668Z,612.00
2018-02-25T07:30:21.423Z,628.00
2018-02-25T07:31:22.524Z,604.00
2018-02-25T07:32:22.092Z,596.00
2018-02-25T07:33:21.585Z,620.00
2018-02-25T07:34:10.990Z,648.00
2018-02-25T07:35:21.718Z,680.00
2018-02-25T07:36:21.148Z,688.00
2018-02-25T07:37:11.057Z,684.00
2018-02-25T07:38:21.118Z,756.00
2018-02-25T07:39:10.802Z,776.00
2018-02-25T07:40:21.244Z,788.00
2018-02-25T07:41:22.254Z,788.00
2018-02-25T07:42:21.791Z,776.00
2018-02-25T07:43:10.648Z,768.00
2018-02-25T07:44:22.360Z,756.00
2018-02-25T07:45:20.910Z,760.00
2018-02-25T07:46:19.872Z,804.00
2018-02-25T07:47:21.411Z,800.00
2018-02-25T07:48:21.501Z,788.00
2018-02-25T07:49:20.925Z,780.00
2018-02-25T07:50:20.940Z,856.00
2018-02-25T07:51:20.871Z,884.00
2018-02-25T07:52:22.079Z,860.00
2018-02-25T07:53:21.121Z,872.00
2018-02-25T07:54:20.597Z,832.00
2018-02-25T07:55:20.655Z,808.00
2018-02-25T07:56:20.762Z,824.00
2018-02-25T07:57:20.816Z,872.00
2018-02-25T07:58:21.609Z,896.00
2018-02-25T07:59:10.051Z,908.00
2018-02-25T08:00:20.518Z,888.00
2018-02-25T08:01:09.956Z,896.00
2018-02-25T08:02:20.261Z,952.00
2018-02-25T08:03:21.152Z,964.00
2018-02-25T08:04:20.603Z,952.00
2018-02-25T08:05:11.634Z,904.00
2018-02-25T08:06:20.706Z,896.00
2018-02-25T08:07:21.219Z,916.00
2018-02-25T08:08:21.292Z,924.00
2018-02-25T08:09:20.282Z,980.00
2018-02-25T08:10:20.351Z,988.00
2018-02-25T08:11:20.979Z,1028.00
2018-02-25T08:12:19.796Z,1052.00
2018-02-25T08:13:19.765Z,1048.00
2018-02-25T08:14:20.947Z,1024.00
2018-02-25T08:15:20.017Z,1032.00
2018-02-25T08:16:21.438Z,1032.00
2018-02-25T08:17:19.877Z,1024.00
2018-02-25T08:18:19.450Z,1040.00
2018-02-25T08:19:19.547Z,1068.00
2018-02-25T08:20:21.567Z,1124.00
2018-02-25T08:21:20.263Z,1100.00
2018-02-25T08:22:19.594Z,1104.00
2018-02-25T08:23:19.561Z,1144.00
2018-02-25T08:24:19.837Z,1128.00
2018-02-25T08:25:19.706Z,1124.00
2018-02-25T08:26:21.152Z,1120.00
2018-02-25T08:27:19.630Z,1108.00
2018-02-25T08:28:19.190Z,1144.00
2018-02-25T08:29:08.888Z,1168.00
2018-02-25T08:30:18.680Z,1208.00
2018-02-25T08:31:19.376Z,1236.00
2018-02-25T08:32:08.748Z,1224.00
2018-02-25T08:33:21.265Z,1184.00
2018-02-25T08:34:20.284Z,1196.00
2018-02-25T08:35:17.952Z,1224.00
2018-02-25T08:36:18.933Z,1244.00
2018-02-25T08:37:19.824Z,1268.00
2018-02-25T08:38:19.268Z,1288.00
2018-02-25T08:39:19.002Z,1272.00
2018-02-25T08:40:18.866Z,1276.00
2018-02-25T08:41:20.094Z,1332.00
2018-02-25T08:42:19.024Z,1364.00
2018-02-25T08:43:18.557Z,1320.00
2018-02-25T08:44:08.326Z,1388.00
2018-02-25T08:45:17.612Z,1356.00
2018-02-25T08:46:19.686Z,1380.00
2018-02-25T08:47:18.654Z,1444.00
2018-02-25T08:48:20.254Z,1508.00
2018-02-25T08:49:18.992Z,1448.00
2018-02-25T08:50:19.570Z,1452.00
2018-02-25T08:51:19.716Z,1536.00
2018-02-25T08:52:18.142Z,1512.00
2018-02-25T08:53:18.235Z,1464.00
2018-02-25T08:54:17.272Z,1420.00
2018-02-25T08:55:18.850Z,1460.00
2018-02-25T08:56:17.344Z,1528.00
2018-02-25T08:57:19.196Z,1456.00
2018-02-25T08:58:18.260Z,1508.00
2018-02-25T08:59:20.295Z,1520.00
2018-02-25T09:00:18.341Z,1624.00
2018-02-25T09:01:17.890Z,1692.00
2018-02-25T09:02:17.845Z,1600.00
2018-02-25T09:03:17.911Z,1520.00
2018-02-25T09:04:18.023Z,1500.00
2018-02-25T09:06:47.556Z,1480.00
2018-02-25T09:07:57.761Z,1532.00
2018-02-25T09:08:57.689Z,1568.00
2018-02-25T09:09:58.865Z,1608.00
2018-02-25T09:10:57.807Z,1616.00
2018-02-25T09:11:58.473Z,1660.00
2018-02-25T09:12:57.649Z,1816.00
2018-02-25T09:13:56.328Z,1832.00
2018-02-25T09:14:57.329Z,1820.00
2018-02-25T09:15:57.340Z,1816.00
2018-02-25T09:16:47.066Z,1880.00
2018-02-25T09:17:57.814Z,1924.00
2018-02-25T09:18:57.479Z,2036.00
2018-02-25T09:19:57.452Z,2156.00
2018-02-25T09:20:57.424Z,2096.00
2018-02-25T09:21:57.017Z,2072.00
2018-02-25T09:22:57.067Z,1972.00
2018-02-25T09:23:58.752Z,2028.00
2018-02-25T09:24:57.067Z,2056.00
2018-02-25T09:25:57.253Z,2076.00
2018-02-25T09:26:57.237Z,1956.00
2018-02-25T09:27:57.105Z,1832.00
2018-02-25T09:28:57.710Z,1844.00
2018-02-25T09:29:46.550Z,1812.00
2018-02-25T09:30:56.823Z,1788.00
2018-02-25T09:31:58.247Z,1888.00
2018-02-25T09:32:57.745Z,1864.00
2018-02-25T09:33:54.332Z,1892.00
2018-02-25T09:34:54.880Z,1936.00
2018-02-25T09:35:56.803Z,2020.00
2018-02-25T09:36:56.836Z,2000.00
2018-02-25T09:37:58.294Z,1992.00
2018-02-25T09:38:46.180Z,1916.00
2018-02-25T09:39:46.145Z,1864.00
2018-02-25T09:40:56.788Z,1940.00
2018-02-25T09:41:56.305Z,1884.00
2018-02-25T09:42:56.363Z,1936.00
2018-02-25T09:43:55.521Z,1976.00
2018-02-25T09:44:56.921Z,2064.00
2018-02-25T09:45:57.541Z,2084.00
2018-02-25T09:46:57.643Z,2148.00
2018-02-25T09:47:56.628Z,2228.00
2018-02-25T09:48:55.947Z,2220.00
2018-02-25T09:49:56.060Z,2208.00
2018-02-25T09:50:56.102Z,2112.00
2018-02-25T09:51:56.111Z,2080.00
2018-02-25T09:52:56.546Z,2088.00
2018-02-25T09:53:54.224Z,2048.00
2018-02-25T09:54:56.147Z,2048.00
2018-02-25T09:55:55.710Z,2208.00
2018-02-25T09:56:55.781Z,2184.00
2018-02-25T09:57:57.249Z,2224.00
2018-02-25T09:58:56.190Z,2112.00
2018-02-25T09:59:55.794Z,1980.00
2018-02-25T10:00:45.333Z,1900.00
2018-02-25T10:01:55.848Z,1892.00
2018-02-25T10:02:57.183Z,1928.00
2018-02-25T10:03:57.021Z,1928.00
2018-02-25T10:04:55.396Z,1900.00
2018-02-25T10:05:56.393Z,1892.00
2018-02-25T10:06:45.115Z,1988.00
2018-02-25T10:07:56.450Z,2004.00
2018-02-25T10:08:55.912Z,2048.00
2018-02-25T10:09:55.889Z,2108.00
2018-02-25T10:10:54.478Z,2072.00
2018-02-25T10:11:57.671Z,2092.00
2018-02-25T10:12:55.112Z,2068.00
2018-02-25T10:13:53.984Z,2060.00
2018-02-25T10:16:27.375Z,2040.00
2018-02-25T10:17:37.868Z,2120.00
2018-02-25T10:18:37.718Z,2188.00
2018-02-25T10:19:37.609Z,2064.00
2018-02-25T10:20:39.261Z,2052.00
2018-02-25T10:21:37.806Z,2176.00
2018-02-25T10:22:38.213Z,2180.00
2018-02-25T10:23:37.251Z,2192.00
2018-02-25T10:24:27.024Z,2204.00
2018-02-25T10:25:38.221Z,2168.00
2018-02-25T10:26:38.949Z,2232.00
2018-02-25T10:27:37.723Z,2324.00
2018-02-25T10:28:37.325Z,2256.00
2018-02-25T10:29:37.420Z,2208.00
2018-02-25T10:30:38.126Z,2164.00
2018-02-25T10:31:37.926Z,2316.00
2018-02-25T10:32:36.437Z,2364.00
2018-02-25T10:33:38.221Z,2596.00
2018-02-25T10:34:37.012Z,2672.00
2018-02-25T10:35:26.602Z,2644.00
2018-02-25T10:36:37.165Z,2604.00
2018-02-25T10:37:37.630Z,2628.00
2018-02-25T10:38:26.496Z,2736.00
2018-02-25T10:39:36.148Z,2756.00
2018-02-25T10:40:36.771Z,2712.00
2018-02-25T10:41:36.588Z,2520.00
2018-02-25T10:42:36.677Z,2548.00
2018-02-25T10:43:37.096Z,2544.00
2018-02-25T10:44:37.644Z,2660.00
2018-02-25T10:45:35.961Z,2736.00
2018-02-25T10:46:35.852Z,2664.00
2018-02-25T10:47:36.357Z,2920.00
2018-02-25T10:48:37.972Z,2800.00
2018-02-25T10:49:26.067Z,2596.00
2018-02-25T10:50:26.036Z,2652.00
2018-02-25T10:51:37.425Z,2632.00
2018-02-25T10:52:36.355Z,2492.00
2018-02-25T10:53:36.416Z,2404.00
2018-02-25T10:54:36.977Z,2628.00
2018-02-25T10:55:35.479Z,2532.00
2018-02-25T10:56:36.158Z,2676.00
2018-02-25T10:57:35.493Z,2960.00
2018-02-25T10:58:37.070Z,2944.00
2018-02-25T10:59:25.728Z,2808.00
2018-02-25T11:00:36.431Z,2732.00
2018-02-25T11:01:25.616Z,2780.00
2018-02-25T11:02:25.573Z,2860.00
2018-02-25T11:03:36.070Z,2892.00
2018-02-25T11:04:25.504Z,3248.00
2018-02-25T11:05:25.501Z,3308.00
2018-02-25T11:06:36.041Z,2736.00
2018-02-25T11:07:25.383Z,2640.00
2018-02-25T11:08:25.350Z,2844.00
2018-02-25T11:09:35.553Z,2460.00
2018-02-25T11:10:25.300Z,2408.00
2018-02-25T11:11:25.260Z,2956.00
2018-02-25T11:12:35.556Z,3156.00
2018-02-25T11:13:35.551Z,2708.00
2018-02-25T11:14:25.117Z,2484.00
2018-02-25T11:15:35.607Z,2736.00
2018-02-25T11:16:25.076Z,2816.00
2018-02-25T11:17:35.109Z,3076.00
2018-02-25T11:18:24.976Z,3064.00
2018-02-25T11:19:24.927Z,2988.00
2018-02-25T11:20:24.895Z,2836.00
2018-02-25T11:21:24.856Z,2724.00
2018-02-25T11:22:35.616Z,2644.00
2018-02-25T11:23:24.781Z,2808.00
2018-02-25T11:24:24.745Z,2768.00
2018-02-25T11:25:24.705Z,2908.00
2018-02-25T11:26:24.670Z,2780.00
2018-02-25T11:27:24.659Z,2696.00
2018-02-25T11:28:36.152Z,2716.00
2018-02-25T11:29:34.823Z,2724.00
2018-02-25T11:30:24.529Z,2768.00
2018-02-25T11:31:24.513Z,2756.00
2018-02-25T11:32:25.061Z,2888.00
2018-02-25T11:33:24.429Z,2836.00
2018-02-25T11:34:24.368Z,2876.00
2018-02-25T11:35:24.336Z,2872.00
2018-02-25T11:36:35.229Z,2800.00
2018-02-25T11:37:24.267Z,2728.00
2018-02-25T11:38:24.226Z,2756.00
2018-02-25T11:39:24.186Z,2728.00
2018-02-25T11:40:34.221Z,2712.00
2018-02-25T11:41:35.778Z,2704.00
2018-02-25T11:42:24.133Z,2724.00
2018-02-25T11:43:34.300Z,2764.00
2018-02-25T11:44:35.303Z,2752.00
2018-02-25T11:45:23.966Z,2728.00
2018-02-25T11:46:23.934Z,2724.00
2018-02-25T11:47:23.929Z,2736.00
2018-02-25T11:48:23.852Z,2732.00
2018-02-25T11:49:23.812Z,3064.00
2018-02-25T11:50:23.780Z,3076.00
2018-02-25T11:51:23.742Z,3104.00
2018-02-25T11:52:23.737Z,3136.00
2018-02-25T11:53:23.668Z,3128.00
2018-02-25T11:54:23.625Z,3196.00
2018-02-25T11:55:23.677Z,3208.00
2018-02-25T11:56:23.553Z,3236.00
2018-02-25T11:57:23.550Z,3208.00
2018-02-25T11:58:23.510Z,3240.00
2018-02-25T11:59:23.437Z,3264.00
2018-02-25T12:00:23.397Z,3300.00
2018-02-25T12:01:23.366Z,3316.00
2018-02-25T12:02:23.349Z,3336.00
2018-02-25T12:03:23.281Z,3372.00
2018-02-25T12:04:33.571Z,3052.00
2018-02-25T12:05:33.593Z,3116.00
2018-02-25T12:06:34.376Z,3128.00
2018-02-25T12:07:33.904Z,3172.00
2018-02-25T12:08:33.689Z,3284.00
2018-02-25T12:09:33.615Z,3616.00
2018-02-25T12:10:23.043Z,3968.00
2018-02-25T12:11:33.629Z,3972.00
2018-02-25T12:12:22.964Z,4608.00
2018-02-25T12:13:33.167Z,4480.00
2018-02-25T12:14:33.212Z,4900.00
2018-02-25T12:15:22.802Z,4920.00
2018-02-25T12:16:33.500Z,4912.00
2018-02-25T12:17:33.048Z,4500.00
2018-02-25T12:18:33.195Z,4504.00
2018-02-25T12:19:22.637Z,4320.00
2018-02-25T12:20:22.601Z,4516.00
2018-02-25T12:21:33.246Z,4512.00
2018-02-25T12:22:33.282Z,4776.00
2018-02-25T12:23:22.469Z,4800.00
2018-02-25T12:24:22.446Z,5040.00
2018-02-25T12:25:22.427Z,5468.00
2018-02-25T12:26:32.905Z,5552.00
2018-02-25T12:27:22.336Z,5512.00
2018-02-25T12:28:33.710Z,5688.00
2018-02-25T12:29:32.874Z,6148.00
2018-02-25T12:30:32.181Z,5816.00
2018-02-25T12:31:22.174Z,5404.00
2018-02-25T12:32:22.122Z,5688.00
2018-02-25T12:33:36.523Z,5484.00
2018-02-25T12:34:22.031Z,5808.00
2018-02-25T12:35:32.462Z,6484.00
2018-02-25T12:36:33.764Z,6080.00
2018-02-25T12:37:21.942Z,6116.00
2018-02-25T12:38:33.595Z,6108.00
2018-02-25T12:39:32.344Z,6400.00
2018-02-25T12:40:32.437Z,6152.00
2018-02-25T12:41:31.879Z,5824.00
2018-02-25T12:42:31.464Z,5580.00
2018-02-25T12:43:31.966Z,5148.00
2018-02-25T12:44:32.965Z,5260.00
2018-02-25T12:45:33.000Z,5496.00
2018-02-25T12:46:32.092Z,5452.00
2018-02-25T12:47:31.597Z,5372.00
2018-02-25T12:48:35.158Z,5512.00
2018-02-25T12:49:31.928Z,5480.00